sensor_id;sensor_type;location;lat;lon;timestamp;P1;durP1;ratioP1;P2;durP2;ratioP2
49193;SDS011;35029;50.804;12.866;2023-12-20T00:01:46;6.47;;;4.82;;
49193;SDS011;35029;50.804;12.866;2023-12-20T00:04:12;5.65;;;4.93;;
49193;SDS011;35029;50.804;12.866;2023-12-20T00:06:37;5.10;;;4.40;;
49193;SDS011;35029;50.804;12.866;2023-12-20T00:09:03;6.10;;;4.68;;
49193;SDS011;35029;50.804;12.866;2023-12-20T00:11:28;5.28;;;4.50;;
49193;SDS011;35029;50.804;12.866;2023-12-20T00:13:54;5.30;;;4.50;;
49193;SDS011;35029;50.804;12.866;2023-12-20T00:16:19;4.72;;;4.07;;
49193;SDS011;35029;50.804;12.866;2023-12-20T00:18:45;5.05;;;4.40;;
49193;SDS011;35029;50.804;12.866;2023-12-20T00:21:11;5.50;;;4.32;;
49193;SDS011;35029;50.804;12.866;2023-12-20T00:23:36;6.45;;;4.90;;
49193;SDS011;35029;50.804;12.866;2023-12-20T00:26:02;4.80;;;4.35;;
49193;SDS011;35029;50.804;12.866;2023-12-20T00:28:28;5.03;;;4.50;;
49193;SDS011;35029;50.804;12.866;2023-12-20T00:30:53;6.63;;;4.45;;
49193;SDS011;35029;50.804;12.866;2023-12-20T00:33:19;4.55;;;3.67;;
49193;SDS011;35029;50.804;12.866;2023-12-20T00:35:45;5.05;;;3.72;;
49193;SDS011;35029;50.804;12.866;2023-12-20T00:38:11;4.00;;;3.25;;
49193;SDS011;35029;50.804;12.866;2023-12-20T00:40:36;4.55;;;3.47;;
49193;SDS011;35029;50.804;12.866;2023-12-20T00:43:02;4.70;;;3.45;;
49193;SDS011;35029;50.804;12.866;2023-12-20T00:45:28;3.67;;;3.30;;
49193;SDS011;35029;50.804;12.866;2023-12-20T00:47:54;4.78;;;3.67;;
49193;SDS011;35029;50.804;12.866;2023-12-20T00:50:19;3.53;;;3.08;;
49193;SDS011;35029;50.804;12.866;2023-12-20T00:52:47;4.00;;;3.60;;
49193;SDS011;35029;50.804;12.866;2023-12-20T00:55:12;3.38;;;2.88;;
49193;SDS011;35029;50.804;12.866;2023-12-20T00:57:39;3.22;;;2.63;;
49193;SDS011;35029;50.804;12.866;2023-12-20T01:00:05;2.88;;;2.67;;
49193;SDS011;35029;50.804;12.866;2023-12-20T01:02:31;3.63;;;3.20;;
49193;SDS011;35029;50.804;12.866;2023-12-20T01:04:56;2.88;;;2.40;;
49193;SDS011;35029;50.804;12.866;2023-12-20T01:07:22;2.95;;;2.50;;
49193;SDS011;35029;50.804;12.866;2023-12-20T01:09:49;2.60;;;2.17;;
49193;SDS011;35029;50.804;12.866;2023-12-20T01:12:14;3.58;;;2.58;;
49193;SDS011;35029;50.804;12.866;2023-12-20T01:14:40;2.50;;;2.30;;
49193;SDS011;35029;50.804;12.866;2023-12-20T01:17:05;2.65;;;2.28;;
49193;SDS011;35029;50.804;12.866;2023-12-20T01:19:31;4.07;;;2.65;;
49193;SDS011;35029;50.804;12.866;2023-12-20T01:21:57;3.35;;;2.40;;
49193;SDS011;35029;50.804;12.866;2023-12-20T01:24:22;2.42;;;1.80;;
49193;SDS011;35029;50.804;12.866;2023-12-20T01:26:48;2.60;;;2.40;;
49193;SDS011;35029;50.804;12.866;2023-12-20T01:29:13;2.25;;;1.90;;
49193;SDS011;35029;50.804;12.866;2023-12-20T01:31:40;1.98;;;1.83;;
49193;SDS011;35029;50.804;12.866;2023-12-20T01:34:06;2.00;;;1.70;;
49193;SDS011;35029;50.804;12.866;2023-12-20T01:36:31;4.18;;;2.03;;
49193;SDS011;35029;50.804;12.866;2023-12-20T01:38:57;2.88;;;2.13;;
49193;SDS011;35029;50.804;12.866;2023-12-20T01:41:23;1.88;;;1.73;;
49193;SDS011;35029;50.804;12.866;2023-12-20T01:43:48;1.92;;;1.48;;
49193;SDS011;35029;50.804;12.866;2023-12-20T01:46:14;1.95;;;1.50;;
49193;SDS011;35029;50.804;12.866;2023-12-20T01:48:39;2.60;;;1.55;;
49193;SDS011;35029;50.804;12.866;2023-12-20T01:51:05;1.58;;;1.48;;
49193;SDS011;35029;50.804;12.866;2023-12-20T01:53:31;2.05;;;1.52;;
49193;SDS011;35029;50.804;12.866;2023-12-20T01:55:57;1.48;;;1.30;;
49193;SDS011;35029;50.804;12.866;2023-12-20T01:58:23;1.42;;;1.20;;
49193;SDS011;35029;50.804;12.866;2023-12-20T02:00:50;2.33;;;1.50;;
49193;SDS011;35029;50.804;12.866;2023-12-20T02:03:16;1.15;;;1.05;;
49193;SDS011;35029;50.804;12.866;2023-12-20T02:05:43;1.00;;;1.00;;
49193;SDS011;35029;50.804;12.866;2023-12-20T02:08:09;1.55;;;1.45;;
49193;SDS011;35029;50.804;12.866;2023-12-20T02:10:35;1.15;;;1.05;;
49193;SDS011;35029;50.804;12.866;2023-12-20T02:13:00;1.15;;;0.88;;
49193;SDS011;35029;50.804;12.866;2023-12-20T02:15:26;1.42;;;1.33;;
49193;SDS011;35029;50.804;12.866;2023-12-20T02:17:51;1.00;;;1.00;;
49193;SDS011;35029;50.804;12.866;2023-12-20T02:20:17;1.20;;;1.10;;
49193;SDS011;35029;50.804;12.866;2023-12-20T02:22:44;1.13;;;0.98;;
49193;SDS011;35029;50.804;12.866;2023-12-20T02:25:09;1.00;;;0.90;;
49193;SDS011;35029;50.804;12.866;2023-12-20T02:27:35;1.05;;;0.98;;
49193;SDS011;35029;50.804;12.866;2023-12-20T02:30:01;1.08;;;0.98;;
49193;SDS011;35029;50.804;12.866;2023-12-20T02:32:26;0.88;;;0.80;;
49193;SDS011;35029;50.804;12.866;2023-12-20T02:34:53;1.42;;;1.20;;
49193;SDS011;35029;50.804;12.866;2023-12-20T02:37:18;1.10;;;1.00;;
49193;SDS011;35029;50.804;12.866;2023-12-20T02:39:44;0.95;;;0.90;;
49193;SDS011;35029;50.804;12.866;2023-12-20T02:42:10;1.27;;;1.10;;
49193;SDS011;35029;50.804;12.866;2023-12-20T02:44:35;1.17;;;0.90;;
49193;SDS011;35029;50.804;12.866;2023-12-20T02:47:01;1.90;;;1.10;;
49193;SDS011;35029;50.804;12.866;2023-12-20T02:49:27;0.77;;;0.75;;
49193;SDS011;35029;50.804;12.866;2023-12-20T02:51:54;1.10;;;1.00;;
49193;SDS011;35029;50.804;12.866;2023-12-20T02:54:19;1.30;;;1.10;;
49193;SDS011;35029;50.804;12.866;2023-12-20T02:56:45;1.23;;;1.13;;
49193;SDS011;35029;50.804;12.866;2023-12-20T02:59:10;1.05;;;0.95;;
49193;SDS011;35029;50.804;12.866;2023-12-20T03:01:41;0.80;;;0.80;;
49193;SDS011;35029;50.804;12.866;2023-12-20T03:04:08;0.98;;;0.85;;
49193;SDS011;35029;50.804;12.866;2023-12-20T03:06:33;1.15;;;0.90;;
49193;SDS011;35029;50.804;12.866;2023-12-20T03:08:59;0.77;;;0.70;;
49193;SDS011;35029;50.804;12.866;2023-12-20T03:11:27;2.03;;;1.05;;
49193;SDS011;35029;50.804;12.866;2023-12-20T03:13:53;2.15;;;0.70;;
49193;SDS011;35029;50.804;12.866;2023-12-20T03:16:19;0.80;;;0.80;;
49193;SDS011;35029;50.804;12.866;2023-12-20T03:18:45;0.80;;;0.70;;
49193;SDS011;35029;50.804;12.866;2023-12-20T03:21:10;0.70;;;0.70;;
49193;SDS011;35029;50.804;12.866;2023-12-20T03:23:36;0.57;;;0.57;;
49193;SDS011;35029;50.804;12.866;2023-12-20T03:26:01;0.80;;;0.80;;
49193;SDS011;35029;50.804;12.866;2023-12-20T03:28:27;1.15;;;0.80;;
49193;SDS011;35029;50.804;12.866;2023-12-20T03:30:53;0.88;;;0.80;;
49193;SDS011;35029;50.804;12.866;2023-12-20T03:33:19;1.90;;;0.68;;
49193;SDS011;35029;50.804;12.866;2023-12-20T03:35:45;1.67;;;0.80;;
49193;SDS011;35029;50.804;12.866;2023-12-20T03:38:11;0.60;;;0.60;;
49193;SDS011;35029;50.804;12.866;2023-12-20T03:40:36;1.08;;;0.68;;
49193;SDS011;35029;50.804;12.866;2023-12-20T03:43:02;2.05;;;0.77;;
49193;SDS011;35029;50.804;12.866;2023-12-20T03:45:28;0.95;;;0.90;;
49193;SDS011;35029;50.804;12.866;2023-12-20T03:47:53;0.73;;;0.70;;
49193;SDS011;35029;50.804;12.866;2023-12-20T03:50:23;0.75;;;0.70;;
49193;SDS011;35029;50.804;12.866;2023-12-20T03:52:48;2.25;;;0.85;;
49193;SDS011;35029;50.804;12.866;2023-12-20T03:55:14;0.50;;;0.50;;
49193;SDS011;35029;50.804;12.866;2023-12-20T03:57:40;0.70;;;0.65;;
49193;SDS011;35029;50.804;12.866;2023-12-20T04:00:06;0.70;;;0.70;;
49193;SDS011;35029;50.804;12.866;2023-12-20T04:05:03;1.58;;;0.70;;
49193;SDS011;35029;50.804;12.866;2023-12-20T04:07:30;0.68;;;0.68;;
49193;SDS011;35029;50.804;12.866;2023-12-20T04:09:55;0.80;;;0.80;;
49193;SDS011;35029;50.804;12.866;2023-12-20T04:12:21;0.93;;;0.75;;
49193;SDS011;35029;50.804;12.866;2023-12-20T04:14:46;1.38;;;0.65;;
49193;SDS011;35029;50.804;12.866;2023-12-20T04:17:12;0.80;;;0.80;;
49193;SDS011;35029;50.804;12.866;2023-12-20T04:19:38;0.60;;;0.60;;
49193;SDS011;35029;50.804;12.866;2023-12-20T04:22:03;1.55;;;0.80;;
49193;SDS011;35029;50.804;12.866;2023-12-20T04:24:29;0.70;;;0.70;;
49193;SDS011;35029;50.804;12.866;2023-12-20T04:26:54;0.80;;;0.80;;
49193;SDS011;35029;50.804;12.866;2023-12-20T04:29:20;1.55;;;0.80;;
49193;SDS011;35029;50.804;12.866;2023-12-20T04:31:45;0.60;;;0.60;;
49193;SDS011;35029;50.804;12.866;2023-12-20T04:34:11;1.95;;;1.40;;
49193;SDS011;35029;50.804;12.866;2023-12-20T04:36:36;1.90;;;0.70;;
49193;SDS011;35029;50.804;12.866;2023-12-20T04:39:02;1.08;;;0.70;;
49193;SDS011;35029;50.804;12.866;2023-12-20T04:41:28;0.80;;;0.70;;
49193;SDS011;35029;50.804;12.866;2023-12-20T04:43:53;0.50;;;0.50;;
49193;SDS011;35029;50.804;12.866;2023-12-20T04:46:19;2.88;;;0.60;;
49193;SDS011;35029;50.804;12.866;2023-12-20T04:48:44;0.70;;;0.70;;
49193;SDS011;35029;50.804;12.866;2023-12-20T04:51:10;0.50;;;0.50;;
49193;SDS011;35029;50.804;12.866;2023-12-20T04:53:35;0.60;;;0.60;;
49193;SDS011;35029;50.804;12.866;2023-12-20T04:56:01;0.50;;;0.50;;
49193;SDS011;35029;50.804;12.866;2023-12-20T04:58:28;1.90;;;0.90;;
49193;SDS011;35029;50.804;12.866;2023-12-20T05:00:53;1.35;;;0.90;;
49193;SDS011;35029;50.804;12.866;2023-12-20T05:03:19;0.90;;;0.60;;
49193;SDS011;35029;50.804;12.866;2023-12-20T05:05:44;0.60;;;0.60;;
49193;SDS011;35029;50.804;12.866;2023-12-20T05:08:10;1.65;;;0.70;;
49193;SDS011;35029;50.804;12.866;2023-12-20T05:10:35;0.85;;;0.68;;
49193;SDS011;35029;50.804;12.866;2023-12-20T05:13:01;0.85;;;0.60;;
49193;SDS011;35029;50.804;12.866;2023-12-20T05:15:27;1.02;;;0.73;;
49193;SDS011;35029;50.804;12.866;2023-12-20T05:17:53;0.73;;;0.73;;
49193;SDS011;35029;50.804;12.866;2023-12-20T05:20:18;0.57;;;0.50;;
49193;SDS011;35029;50.804;12.866;2023-12-20T05:22:44;0.80;;;0.73;;
49193;SDS011;35029;50.804;12.866;2023-12-20T05:25:10;0.98;;;0.73;;
49193;SDS011;35029;50.804;12.866;2023-12-20T05:27:36;1.02;;;0.90;;
49193;SDS011;35029;50.804;12.866;2023-12-20T05:30:01;0.88;;;0.88;;
49193;SDS011;35029;50.804;12.866;2023-12-20T05:32:27;1.50;;;1.08;;
49193;SDS011;35029;50.804;12.866;2023-12-20T05:34:52;1.23;;;0.90;;
49193;SDS011;35029;50.804;12.866;2023-12-20T05:37:18;2.97;;;1.00;;
49193;SDS011;35029;50.804;12.866;2023-12-20T05:39:43;3.15;;;1.45;;
49193;SDS011;35029;50.804;12.866;2023-12-20T05:42:09;3.42;;;2.78;;
49193;SDS011;35029;50.804;12.866;2023-12-20T05:44:34;2.10;;;1.05;;
49193;SDS011;35029;50.804;12.866;2023-12-20T05:47:00;3.60;;;3.13;;
49193;SDS011;35029;50.804;12.866;2023-12-20T05:49:26;1.50;;;1.30;;
49193;SDS011;35029;50.804;12.866;2023-12-20T05:51:51;1.30;;;1.00;;
49193;SDS011;35029;50.804;12.866;2023-12-20T05:54:17;1.75;;;1.13;;
49193;SDS011;35029;50.804;12.866;2023-12-20T05:56:43;1.00;;;0.90;;
49193;SDS011;35029;50.804;12.866;2023-12-20T05:59:08;2.85;;;1.10;;
49193;SDS011;35029;50.804;12.866;2023-12-20T06:01:34;3.08;;;1.00;;
49193;SDS011;35029;50.804;12.866;2023-12-20T06:04:01;1.73;;;1.08;;
49193;SDS011;35029;50.804;12.866;2023-12-20T06:06:26;2.22;;;1.25;;
49193;SDS011;35029;50.804;12.866;2023-12-20T06:08:52;2.38;;;1.33;;
49193;SDS011;35029;50.804;12.866;2023-12-20T06:11:17;1.58;;;1.30;;
49193;SDS011;35029;50.804;12.866;2023-12-20T06:13:43;1.60;;;1.33;;
49193;SDS011;35029;50.804;12.866;2023-12-20T06:16:08;1.33;;;1.23;;
49193;SDS011;35029;50.804;12.866;2023-12-20T06:18:34;3.67;;;1.63;;
49193;SDS011;35029;50.804;12.866;2023-12-20T06:20:59;1.52;;;1.40;;
49193;SDS011;35029;50.804;12.866;2023-12-20T06:23:25;1.60;;;1.50;;
49193;SDS011;35029;50.804;12.866;2023-12-20T06:25:52;1.67;;;1.55;;
49193;SDS011;35029;50.804;12.866;2023-12-20T06:28:17;1.75;;;1.48;;
49193;SDS011;35029;50.804;12.866;2023-12-20T06:30:43;1.77;;;1.67;;
49193;SDS011;35029;50.804;12.866;2023-12-20T06:33:08;3.03;;;1.70;;
49193;SDS011;35029;50.804;12.866;2023-12-20T06:35:36;1.60;;;1.50;;
49193;SDS011;35029;50.804;12.866;2023-12-20T06:38:02;1.60;;;1.50;;
49193;SDS011;35029;50.804;12.866;2023-12-20T06:40:28;2.47;;;1.70;;
49193;SDS011;35029;50.804;12.866;2023-12-20T06:42:55;3.60;;;1.65;;
49193;SDS011;35029;50.804;12.866;2023-12-20T06:45:21;1.80;;;1.70;;
49193;SDS011;35029;50.804;12.866;2023-12-20T06:47:46;1.77;;;1.67;;
49193;SDS011;35029;50.804;12.866;2023-12-20T06:50:12;2.00;;;1.90;;
49193;SDS011;35029;50.804;12.866;2023-12-20T06:52:37;4.15;;;2.15;;
49193;SDS011;35029;50.804;12.866;2023-12-20T06:55:03;2.72;;;2.10;;
49193;SDS011;35029;50.804;12.866;2023-12-20T06:57:30;3.85;;;2.47;;
49193;SDS011;35029;50.804;12.866;2023-12-20T06:59:56;4.20;;;2.53;;
49193;SDS011;35029;50.804;12.866;2023-12-20T07:02:23;2.28;;;2.05;;
49193;SDS011;35029;50.804;12.866;2023-12-20T07:04:48;1.95;;;1.85;;
49193;SDS011;35029;50.804;12.866;2023-12-20T07:07:14;2.15;;;1.92;;
49193;SDS011;35029;50.804;12.866;2023-12-20T07:09:39;2.65;;;2.00;;
49193;SDS011;35029;50.804;12.866;2023-12-20T07:12:07;4.70;;;1.92;;
49193;SDS011;35029;50.804;12.866;2023-12-20T07:14:33;3.35;;;3.05;;
49193;SDS011;35029;50.804;12.866;2023-12-20T07:16:59;6.93;;;2.05;;
49193;SDS011;35029;50.804;12.866;2023-12-20T07:19:24;2.58;;;1.88;;
49193;SDS011;35029;50.804;12.866;2023-12-20T07:21:50;2.65;;;2.20;;
49193;SDS011;35029;50.804;12.866;2023-12-20T07:24:15;2.65;;;2.15;;
49193;SDS011;35029;50.804;12.866;2023-12-20T07:26:41;2.20;;;2.00;;
49193;SDS011;35029;50.804;12.866;2023-12-20T07:29:06;3.33;;;1.92;;
49193;SDS011;35029;50.804;12.866;2023-12-20T07:31:32;3.15;;;2.20;;
49193;SDS011;35029;50.804;12.866;2023-12-20T07:33:57;2.28;;;2.08;;
49193;SDS011;35029;50.804;12.866;2023-12-20T07:36:23;2.42;;;2.00;;
49193;SDS011;35029;50.804;12.866;2023-12-20T07:38:50;2.40;;;2.20;;
49193;SDS011;35029;50.804;12.866;2023-12-20T07:41:15;3.05;;;2.75;;
49193;SDS011;35029;50.804;12.866;2023-12-20T07:43:41;5.68;;;2.40;;
49193;SDS011;35029;50.804;12.866;2023-12-20T07:46:07;2.97;;;1.80;;
49193;SDS011;35029;50.804;12.866;2023-12-20T07:48:36;2.38;;;2.10;;
49193;SDS011;35029;50.804;12.866;2023-12-20T07:51:03;3.05;;;2.30;;
49193;SDS011;35029;50.804;12.866;2023-12-20T07:53:33;4.03;;;2.25;;
49193;SDS011;35029;50.804;12.866;2023-12-20T07:55:58;4.45;;;2.20;;
49193;SDS011;35029;50.804;12.866;2023-12-20T07:58:24;3.95;;;2.22;;
49193;SDS011;35029;50.804;12.866;2023-12-20T08:00:49;2.67;;;2.03;;
49193;SDS011;35029;50.804;12.866;2023-12-20T08:03:15;3.35;;;2.28;;
49193;SDS011;35029;50.804;12.866;2023-12-20T08:05:41;2.33;;;2.13;;
49193;SDS011;35029;50.804;12.866;2023-12-20T08:08:07;3.88;;;2.40;;
49193;SDS011;35029;50.804;12.866;2023-12-20T08:10:33;3.25;;;2.30;;
49193;SDS011;35029;50.804;12.866;2023-12-20T08:12:58;4.05;;;2.20;;
49193;SDS011;35029;50.804;12.866;2023-12-20T08:15:24;4.03;;;2.15;;
49193;SDS011;35029;50.804;12.866;2023-12-20T08:17:49;6.05;;;2.53;;
49193;SDS011;35029;50.804;12.866;2023-12-20T08:20:18;2.55;;;2.10;;
49193;SDS011;35029;50.804;12.866;2023-12-20T08:22:44;4.10;;;2.60;;
49193;SDS011;35029;50.804;12.866;2023-12-20T08:25:09;3.88;;;2.38;;
49193;SDS011;35029;50.804;12.866;2023-12-20T08:27:39;2.92;;;2.63;;
49193;SDS011;35029;50.804;12.866;2023-12-20T08:30:07;4.78;;;2.53;;
49193;SDS011;35029;50.804;12.866;2023-12-20T08:32:33;3.72;;;2.65;;
49193;SDS011;35029;50.804;12.866;2023-12-20T08:34:59;4.60;;;2.70;;
49193;SDS011;35029;50.804;12.866;2023-12-20T08:37:25;2.83;;;2.40;;
49193;SDS011;35029;50.804;12.866;2023-12-20T08:39:50;3.10;;;2.80;;
49193;SDS011;35029;50.804;12.866;2023-12-20T08:42:16;2.92;;;2.60;;
49193;SDS011;35029;50.804;12.866;2023-12-20T08:44:41;3.20;;;2.78;;
49193;SDS011;35029;50.804;12.866;2023-12-20T08:47:07;2.80;;;2.53;;
49193;SDS011;35029;50.804;12.866;2023-12-20T08:49:32;4.38;;;2.95;;
49193;SDS011;35029;50.804;12.866;2023-12-20T08:51:58;4.90;;;2.40;;
49193;SDS011;35029;50.804;12.866;2023-12-20T08:54:23;3.90;;;2.15;;
49193;SDS011;35029;50.804;12.866;2023-12-20T08:56:49;5.82;;;2.28;;
49193;SDS011;35029;50.804;12.866;2023-12-20T08:59:15;6.65;;;2.13;;
49193;SDS011;35029;50.804;12.866;2023-12-20T09:01:40;5.28;;;2.65;;
49193;SDS011;35029;50.804;12.866;2023-12-20T09:04:06;4.70;;;1.95;;
49193;SDS011;35029;50.804;12.866;2023-12-20T09:06:31;3.15;;;2.03;;
49193;SDS011;35029;50.804;12.866;2023-12-20T09:08:57;3.13;;;1.73;;
49193;SDS011;35029;50.804;12.866;2023-12-20T09:11:22;1.90;;;1.67;;
49193;SDS011;35029;50.804;12.866;2023-12-20T09:13:48;1.38;;;1.27;;
49193;SDS011;35029;50.804;12.866;2023-12-20T09:16:13;2.30;;;1.88;;
49193;SDS011;35029;50.804;12.866;2023-12-20T09:18:41;3.45;;;1.70;;
49193;SDS011;35029;50.804;12.866;2023-12-20T09:21:07;4.55;;;1.73;;
49193;SDS011;35029;50.804;12.866;2023-12-20T09:23:32;2.78;;;1.80;;
49193;SDS011;35029;50.804;12.866;2023-12-20T09:25:58;4.13;;;2.05;;
49193;SDS011;35029;50.804;12.866;2023-12-20T09:28:24;6.15;;;2.40;;
49193;SDS011;35029;50.804;12.866;2023-12-20T09:30:49;3.13;;;2.63;;
49193;SDS011;35029;50.804;12.866;2023-12-20T09:33:15;4.22;;;2.97;;
49193;SDS011;35029;50.804;12.866;2023-12-20T09:35:41;3.45;;;2.45;;
49193;SDS011;35029;50.804;12.866;2023-12-20T09:38:07;3.20;;;2.58;;
49193;SDS011;35029;50.804;12.866;2023-12-20T09:40:33;4.03;;;2.90;;
49193;SDS011;35029;50.804;12.866;2023-12-20T09:43:04;2.90;;;2.50;;
49193;SDS011;35029;50.804;12.866;2023-12-20T09:45:35;3.47;;;2.05;;
49193;SDS011;35029;50.804;12.866;2023-12-20T09:48:02;5.95;;;2.28;;
49193;SDS011;35029;50.804;12.866;2023-12-20T09:50:30;6.75;;;2.53;;
49193;SDS011;35029;50.804;12.866;2023-12-20T09:52:57;7.88;;;3.03;;
49193;SDS011;35029;50.804;12.866;2023-12-20T09:55:24;5.38;;;2.58;;
49193;SDS011;35029;50.804;12.866;2023-12-20T09:57:50;6.05;;;2.85;;
49193;SDS011;35029;50.804;12.866;2023-12-20T10:00:16;3.75;;;2.42;;
49193;SDS011;35029;50.804;12.866;2023-12-20T10:02:45;5.68;;;2.50;;
49193;SDS011;35029;50.804;12.866;2023-12-20T10:05:16;4.72;;;2.47;;
49193;SDS011;35029;50.804;12.866;2023-12-20T10:07:46;3.05;;;2.30;;
49193;SDS011;35029;50.804;12.866;2023-12-20T10:10:13;3.85;;;2.42;;
49193;SDS011;35029;50.804;12.866;2023-12-20T10:12:39;5.07;;;2.47;;
49193;SDS011;35029;50.804;12.866;2023-12-20T10:15:05;5.05;;;2.83;;
49193;SDS011;35029;50.804;12.866;2023-12-20T10:17:31;3.03;;;2.45;;
49193;SDS011;35029;50.804;12.866;2023-12-20T10:19:57;2.80;;;2.22;;
49193;SDS011;35029;50.804;12.866;2023-12-20T10:22:23;5.05;;;2.97;;
49193;SDS011;35029;50.804;12.866;2023-12-20T10:24:49;2.60;;;2.25;;
49193;SDS011;35029;50.804;12.866;2023-12-20T10:27:14;3.10;;;2.65;;
49193;SDS011;35029;50.804;12.866;2023-12-20T10:29:44;7.00;;;2.53;;
49193;SDS011;35029;50.804;12.866;2023-12-20T10:32:31;5.80;;;2.72;;
49193;SDS011;35029;50.804;12.866;2023-12-20T10:34:56;4.55;;;2.83;;
49193;SDS011;35029;50.804;12.866;2023-12-20T10:37:22;3.08;;;2.78;;
49193;SDS011;35029;50.804;12.866;2023-12-20T10:39:51;4.72;;;3.05;;
49193;SDS011;35029;50.804;12.866;2023-12-20T10:42:22;4.88;;;2.60;;
49193;SDS011;35029;50.804;12.866;2023-12-20T10:44:51;4.28;;;2.70;;
49193;SDS011;35029;50.804;12.866;2023-12-20T10:47:19;4.43;;;2.80;;
49193;SDS011;35029;50.804;12.866;2023-12-20T10:49:45;4.30;;;2.70;;
49193;SDS011;35029;50.804;12.866;2023-12-20T10:52:12;5.05;;;2.63;;
49193;SDS011;35029;50.804;12.866;2023-12-20T10:54:38;4.10;;;2.63;;
49193;SDS011;35029;50.804;12.866;2023-12-20T10:57:05;5.13;;;2.55;;
49193;SDS011;35029;50.804;12.866;2023-12-20T10:59:35;3.55;;;2.70;;
49193;SDS011;35029;50.804;12.866;2023-12-20T11:02:02;4.68;;;2.15;;
49193;SDS011;35029;50.804;12.866;2023-12-20T11:04:36;4.90;;;2.60;;
49193;SDS011;35029;50.804;12.866;2023-12-20T11:07:17;5.28;;;2.60;;
49193;SDS011;35029;50.804;12.866;2023-12-20T11:10:03;2.95;;;2.03;;
49193;SDS011;35029;50.804;12.866;2023-12-20T11:12:41;3.92;;;2.42;;
49193;SDS011;35029;50.804;12.866;2023-12-20T11:15:14;7.15;;;2.60;;
49193;SDS011;35029;50.804;12.866;2023-12-20T11:17:42;8.35;;;2.72;;
49193;SDS011;35029;50.804;12.866;2023-12-20T11:20:11;5.60;;;2.92;;
49193;SDS011;35029;50.804;12.866;2023-12-20T11:22:37;6.57;;;2.33;;
49193;SDS011;35029;50.804;12.866;2023-12-20T11:25:10;4.80;;;2.03;;
49193;SDS011;35029;50.804;12.866;2023-12-20T11:27:37;5.43;;;2.40;;
49193;SDS011;35029;50.804;12.866;2023-12-20T11:30:06;6.10;;;2.53;;
49193;SDS011;35029;50.804;12.866;2023-12-20T11:32:34;7.15;;;2.40;;
49193;SDS011;35029;50.804;12.866;2023-12-20T11:35:01;6.20;;;2.00;;
49193;SDS011;35029;50.804;12.866;2023-12-20T11:37:43;6.05;;;2.58;;
49193;SDS011;35029;50.804;12.866;2023-12-20T11:40:11;2.65;;;1.80;;
49193;SDS011;35029;50.804;12.866;2023-12-20T11:42:38;3.65;;;1.85;;
49193;SDS011;35029;50.804;12.866;2023-12-20T11:45:04;5.10;;;2.10;;
49193;SDS011;35029;50.804;12.866;2023-12-20T11:47:31;5.35;;;2.03;;
49193;SDS011;35029;50.804;12.866;2023-12-20T11:49:57;2.65;;;1.77;;
49193;SDS011;35029;50.804;12.866;2023-12-20T11:52:23;10.48;;;2.08;;
49193;SDS011;35029;50.804;12.866;2023-12-20T11:54:48;9.23;;;2.05;;
49193;SDS011;35029;50.804;12.866;2023-12-20T11:57:14;8.25;;;2.20;;
49193;SDS011;35029;50.804;12.866;2023-12-20T11:59:39;5.13;;;1.80;;
49193;SDS011;35029;50.804;12.866;2023-12-20T12:02:05;5.53;;;2.08;;
49193;SDS011;35029;50.804;12.866;2023-12-20T12:04:31;8.90;;;2.85;;
49193;SDS011;35029;50.804;12.866;2023-12-20T12:06:56;5.47;;;2.38;;
49193;SDS011;35029;50.804;12.866;2023-12-20T12:09:22;4.45;;;2.35;;
49193;SDS011;35029;50.804;12.866;2023-12-20T12:11:48;10.05;;;2.30;;
49193;SDS011;35029;50.804;12.866;2023-12-20T12:14:14;5.97;;;1.88;;
49193;SDS011;35029;50.804;12.866;2023-12-20T12:16:41;7.38;;;2.33;;
49193;SDS011;35029;50.804;12.866;2023-12-20T12:19:07;8.80;;;2.03;;
49193;SDS011;35029;50.804;12.866;2023-12-20T12:21:46;7.55;;;1.92;;
49193;SDS011;35029;50.804;12.866;2023-12-20T12:24:11;7.15;;;2.05;;
49193;SDS011;35029;50.804;12.866;2023-12-20T12:26:37;8.07;;;2.03;;
49193;SDS011;35029;50.804;12.866;2023-12-20T12:29:03;4.90;;;1.90;;
49193;SDS011;35029;50.804;12.866;2023-12-20T12:31:29;4.18;;;2.20;;
49193;SDS011;35029;50.804;12.866;2023-12-20T12:33:55;4.78;;;1.83;;
49193;SDS011;35029;50.804;12.866;2023-12-20T12:36:21;6.82;;;2.50;;
49193;SDS011;35029;50.804;12.866;2023-12-20T12:38:47;6.40;;;1.90;;
49193;SDS011;35029;50.804;12.866;2023-12-20T12:41:13;9.80;;;2.35;;
49193;SDS011;35029;50.804;12.866;2023-12-20T12:43:40;5.25;;;2.10;;
49193;SDS011;35029;50.804;12.866;2023-12-20T12:46:05;6.15;;;1.60;;
49193;SDS011;35029;50.804;12.866;2023-12-20T12:48:31;4.68;;;1.88;;
49193;SDS011;35029;50.804;12.866;2023-12-20T12:50:57;5.78;;;1.77;;
49193;SDS011;35029;50.804;12.866;2023-12-20T12:53:24;5.97;;;1.85;;
49193;SDS011;35029;50.804;12.866;2023-12-20T12:55:52;9.40;;;2.15;;
49193;SDS011;35029;50.804;12.866;2023-12-20T12:58:19;5.20;;;1.67;;
49193;SDS011;35029;50.804;12.866;2023-12-20T13:00:45;2.55;;;1.50;;
49193;SDS011;35029;50.804;12.866;2023-12-20T13:03:10;5.85;;;2.13;;
49193;SDS011;35029;50.804;12.866;2023-12-20T13:05:36;4.53;;;1.77;;
49193;SDS011;35029;50.804;12.866;2023-12-20T13:08:03;3.53;;;1.83;;
49193;SDS011;35029;50.804;12.866;2023-12-20T13:10:28;4.38;;;1.65;;
49193;SDS011;35029;50.804;12.866;2023-12-20T13:12:54;4.30;;;1.98;;
49193;SDS011;35029;50.804;12.866;2023-12-20T13:15:19;3.30;;;1.67;;
49193;SDS011;35029;50.804;12.866;2023-12-20T13:17:45;6.30;;;1.92;;
49193;SDS011;35029;50.804;12.866;2023-12-20T13:20:11;5.07;;;2.05;;
49193;SDS011;35029;50.804;12.866;2023-12-20T13:22:37;5.30;;;1.83;;
49193;SDS011;35029;50.804;12.866;2023-12-20T13:25:03;4.80;;;1.80;;
49193;SDS011;35029;50.804;12.866;2023-12-20T13:27:28;5.50;;;1.85;;
49193;SDS011;35029;50.804;12.866;2023-12-20T13:29:54;5.90;;;1.75;;
49193;SDS011;35029;50.804;12.866;2023-12-20T13:32:19;5.00;;;1.27;;
49193;SDS011;35029;50.804;12.866;2023-12-20T13:34:45;7.65;;;1.70;;
49193;SDS011;35029;50.804;12.866;2023-12-20T13:37:11;7.05;;;1.58;;
49193;SDS011;35029;50.804;12.866;2023-12-20T13:39:36;4.90;;;1.30;;
49193;SDS011;35029;50.804;12.866;2023-12-20T13:42:02;3.13;;;1.42;;
49193;SDS011;35029;50.804;12.866;2023-12-20T13:44:27;2.58;;;1.25;;
49193;SDS011;35029;50.804;12.866;2023-12-20T13:46:53;2.45;;;1.40;;
49193;SDS011;35029;50.804;12.866;2023-12-20T13:49:19;6.03;;;1.50;;
49193;SDS011;35029;50.804;12.866;2023-12-20T13:51:44;4.70;;;1.67;;
49193;SDS011;35029;50.804;12.866;2023-12-20T13:54:11;2.17;;;1.30;;
49193;SDS011;35029;50.804;12.866;2023-12-20T13:56:36;3.92;;;1.70;;
49193;SDS011;35029;50.804;12.866;2023-12-20T13:59:02;3.05;;;1.20;;
49193;SDS011;35029;50.804;12.866;2023-12-20T14:01:27;2.65;;;1.35;;
49193;SDS011;35029;50.804;12.866;2023-12-20T14:03:53;3.88;;;1.50;;
49193;SDS011;35029;50.804;12.866;2023-12-20T14:06:18;3.13;;;1.50;;
49193;SDS011;35029;50.804;12.866;2023-12-20T14:08:44;6.70;;;1.58;;
49193;SDS011;35029;50.804;12.866;2023-12-20T14:11:09;2.58;;;1.23;;
49193;SDS011;35029;50.804;12.866;2023-12-20T14:13:35;3.58;;;1.48;;
49193;SDS011;35029;50.804;12.866;2023-12-20T14:16:01;4.80;;;1.50;;
49193;SDS011;35029;50.804;12.866;2023-12-20T14:18:29;2.97;;;2.05;;
49193;SDS011;35029;50.804;12.866;2023-12-20T14:20:55;4.45;;;1.55;;
49193;SDS011;35029;50.804;12.866;2023-12-20T14:23:21;3.60;;;1.65;;
49193;SDS011;35029;50.804;12.866;2023-12-20T14:25:47;3.72;;;1.40;;
49193;SDS011;35029;50.804;12.866;2023-12-20T14:28:14;5.28;;;1.55;;
49193;SDS011;35029;50.804;12.866;2023-12-20T14:30:40;3.38;;;1.48;;